sensor_id;sensor_type;location;lat;lon;timestamp;P1;durP1;ratioP1;P2;durP2;ratioP2
25511;SDS011;13414;44.534;18.700;2022-09-02T00:00:40;4.00;;;3.17;;
25511;SDS011;13414;44.534;18.700;2022-09-02T00:03:09;4.18;;;3.05;;
25511;SDS011;13414;44.534;18.700;2022-09-02T00:05:36;6.95;;;3.13;;
25511;SDS011;13414;44.534;18.700;2022-09-02T00:08:04;3.22;;;2.60;;
25511;SDS011;13414;44.534;18.700;2022-09-02T00:10:33;4.50;;;2.92;;
25511;SDS011;13414;44.534;18.700;2022-09-02T00:13:02;4.43;;;3.03;;
25511;SDS011;13414;44.534;18.700;2022-09-02T00:15:31;5.97;;;3.28;;
25511;SDS011;13414;44.534;18.700;2022-09-02T00:17:58;3.53;;;2.70;;
25511;SDS011;13414;44.534;18.700;2022-09-02T00:20:27;3.70;;;3.10;;
25511;SDS011;13414;44.534;18.700;2022-09-02T00:22:55;5.25;;;2.70;;
25511;SDS011;13414;44.534;18.700;2022-09-02T00:25:23;6.85;;;3.20;;
25511;SDS011;13414;44.534;18.700;2022-09-02T00:27:50;5.90;;;3.08;;
25511;SDS011;13414;44.534;18.700;2022-09-02T00:30:18;4.80;;;3.05;;
25511;SDS011;13414;44.534;18.700;2022-09-02T00:32:45;4.97;;;2.88;;
25511;SDS011;13414;44.534;18.700;2022-09-02T00:35:12;4.25;;;3.70;;
25511;SDS011;13414;44.534;18.700;2022-09-02T00:37:41;4.07;;;3.38;;
25511;SDS011;13414;44.534;18.700;2022-09-02T00:40:09;4.90;;;2.90;;
25511;SDS011;13414;44.534;18.700;2022-09-02T00:42:37;4.20;;;3.33;;
25511;SDS011;13414;44.534;18.700;2022-09-02T00:45:05;7.55;;;3.55;;
25511;SDS011;13414;44.534;18.700;2022-09-02T00:47:34;4.10;;;2.90;;
25511;SDS011;13414;44.534;18.700;2022-09-02T00:50:03;6.63;;;3.65;;
25511;SDS011;13414;44.534;18.700;2022-09-02T00:52:34;4.70;;;3.00;;
25511;SDS011;13414;44.534;18.700;2022-09-02T00:55:07;4.32;;;3.33;;
25511;SDS011;13414;44.534;18.700;2022-09-02T00:57:40;6.15;;;3.50;;
25511;SDS011;13414;44.534;18.700;2022-09-02T01:00:12;4.15;;;3.38;;
25511;SDS011;13414;44.534;18.700;2022-09-02T01:02:42;6.45;;;3.30;;
25511;SDS011;13414;44.534;18.700;2022-09-02T01:05:14;4.50;;;3.20;;
25511;SDS011;13414;44.534;18.700;2022-09-02T01:07:43;7.28;;;3.28;;
25511;SDS011;13414;44.534;18.700;2022-09-02T01:10:13;6.75;;;3.70;;
25511;SDS011;13414;44.534;18.700;2022-09-02T01:12:42;6.50;;;3.58;;
25511;SDS011;13414;44.534;18.700;2022-09-02T01:15:10;4.70;;;3.03;;
25511;SDS011;13414;44.534;18.700;2022-09-02T01:17:40;4.28;;;3.05;;
25511;SDS011;13414;44.534;18.700;2022-09-02T01:20:10;3.60;;;3.08;;
25511;SDS011;13414;44.534;18.700;2022-09-02T01:22:40;9.50;;;3.83;;
25511;SDS011;13414;44.534;18.700;2022-09-02T01:25:11;3.65;;;3.08;;
25511;SDS011;13414;44.534;18.700;2022-09-02T01:27:40;6.47;;;3.53;;
25511;SDS011;13414;44.534;18.700;2022-09-02T01:30:11;5.95;;;4.05;;
25511;SDS011;13414;44.534;18.700;2022-09-02T01:32:41;12.50;;;3.50;;
25511;SDS011;13414;44.534;18.700;2022-09-02T01:35:08;5.20;;;4.70;;
25511;SDS011;13414;44.534;18.700;2022-09-02T01:37:37;9.60;;;8.00;;
25511;SDS011;13414;44.534;18.700;2022-09-02T01:40:07;7.57;;;4.50;;
25511;SDS011;13414;44.534;18.700;2022-09-02T01:42:37;6.55;;;5.47;;
25511;SDS011;13414;44.534;18.700;2022-09-02T01:45:06;5.07;;;3.80;;
25511;SDS011;13414;44.534;18.700;2022-09-02T01:47:34;5.85;;;4.43;;
25511;SDS011;13414;44.534;18.700;2022-09-02T01:50:03;6.35;;;4.00;;
25511;SDS011;13414;44.534;18.700;2022-09-02T01:52:30;5.25;;;3.80;;
25511;SDS011;13414;44.534;18.700;2022-09-02T01:54:59;4.65;;;3.47;;
25511;SDS011;13414;44.534;18.700;2022-09-02T01:57:28;4.43;;;3.67;;
25511;SDS011;13414;44.534;18.700;2022-09-02T01:59:55;6.20;;;4.07;;
25511;SDS011;13414;44.534;18.700;2022-09-02T02:02:24;6.18;;;4.00;;
25511;SDS011;13414;44.534;18.700;2022-09-02T02:04:51;4.90;;;4.28;;
25511;SDS011;13414;44.534;18.700;2022-09-02T02:07:20;6.22;;;4.25;;
25511;SDS011;13414;44.534;18.700;2022-09-02T02:09:48;5.68;;;3.90;;
25511;SDS011;13414;44.534;18.700;2022-09-02T02:12:16;6.97;;;4.07;;
25511;SDS011;13414;44.534;18.700;2022-09-02T02:14:45;5.85;;;3.85;;
25511;SDS011;13414;44.534;18.700;2022-09-02T02:17:13;8.50;;;3.40;;
25511;SDS011;13414;44.534;18.700;2022-09-02T02:19:40;5.47;;;3.50;;
25511;SDS011;13414;44.534;18.700;2022-09-02T02:22:08;6.28;;;3.53;;
25511;SDS011;13414;44.534;18.700;2022-09-02T02:24:35;5.50;;;4.03;;
25511;SDS011;13414;44.534;18.700;2022-09-02T02:27:03;5.75;;;3.85;;
25511;SDS011;13414;44.534;18.700;2022-09-02T02:29:31;6.75;;;3.80;;
25511;SDS011;13414;44.534;18.700;2022-09-02T02:32:00;6.50;;;4.10;;
25511;SDS011;13414;44.534;18.700;2022-09-02T02:34:28;5.03;;;4.20;;
25511;SDS011;13414;44.534;18.700;2022-09-02T02:36:56;6.05;;;4.07;;
25511;SDS011;13414;44.534;18.700;2022-09-02T02:39:23;5.40;;;3.97;;
25511;SDS011;13414;44.534;18.700;2022-09-02T02:41:50;6.72;;;4.47;;
25511;SDS011;13414;44.534;18.700;2022-09-02T02:44:18;5.93;;;4.70;;
25511;SDS011;13414;44.534;18.700;2022-09-02T02:46:45;9.63;;;4.65;;
25511;SDS011;13414;44.534;18.700;2022-09-02T02:49:14;6.70;;;4.72;;
25511;SDS011;13414;44.534;18.700;2022-09-02T02:51:41;6.50;;;4.70;;
25511;SDS011;13414;44.534;18.700;2022-09-02T02:54:09;8.00;;;5.30;;
25511;SDS011;13414;44.534;18.700;2022-09-02T02:56:39;8.48;;;5.00;;
25511;SDS011;13414;44.534;18.700;2022-09-02T02:59:06;6.43;;;5.07;;
25511;SDS011;13414;44.534;18.700;2022-09-02T03:01:34;9.20;;;5.65;;
25511;SDS011;13414;44.534;18.700;2022-09-02T03:04:03;11.60;;;5.70;;
25511;SDS011;13414;44.534;18.700;2022-09-02T03:06:32;9.30;;;5.78;;
25511;SDS011;13414;44.534;18.700;2022-09-02T03:09:01;9.65;;;5.85;;
25511;SDS011;13414;44.534;18.700;2022-09-02T03:11:30;9.00;;;7.05;;
25511;SDS011;13414;44.534;18.700;2022-09-02T03:13:57;8.88;;;6.28;;
25511;SDS011;13414;44.534;18.700;2022-09-02T03:16:25;8.52;;;6.18;;
25511;SDS011;13414;44.534;18.700;2022-09-02T03:18:53;7.65;;;6.18;;
25511;SDS011;13414;44.534;18.700;2022-09-02T03:21:20;8.63;;;6.82;;
25511;SDS011;13414;44.534;18.700;2022-09-02T03:23:50;10.15;;;5.95;;
25511;SDS011;13414;44.534;18.700;2022-09-02T03:26:19;8.68;;;7.03;;
25511;SDS011;13414;44.534;18.700;2022-09-02T03:28:48;9.57;;;6.30;;
25511;SDS011;13414;44.534;18.700;2022-09-02T03:31:17;11.30;;;6.60;;
25511;SDS011;13414;44.534;18.700;2022-09-02T03:33:46;9.15;;;6.18;;
25511;SDS011;13414;44.534;18.700;2022-09-02T03:36:20;10.40;;;6.85;;
25511;SDS011;13414;44.534;18.700;2022-09-02T03:38:51;6.85;;;6.03;;
25511;SDS011;13414;44.534;18.700;2022-09-02T03:41:19;10.70;;;6.15;;
25511;SDS011;13414;44.534;18.700;2022-09-02T03:43:46;7.18;;;5.93;;
25511;SDS011;13414;44.534;18.700;2022-09-02T03:46:14;8.85;;;7.47;;
25511;SDS011;13414;44.534;18.700;2022-09-02T03:48:42;9.43;;;6.85;;
25511;SDS011;13414;44.534;18.700;2022-09-02T03:51:11;9.25;;;6.90;;
25511;SDS011;13414;44.534;18.700;2022-09-02T03:53:40;8.45;;;6.50;;
25511;SDS011;13414;44.534;18.700;2022-09-02T03:56:09;10.88;;;7.32;;
25511;SDS011;13414;44.534;18.700;2022-09-02T03:58:38;7.18;;;6.43;;
25511;SDS011;13414;44.534;18.700;2022-09-02T04:01:05;9.30;;;6.20;;
25511;SDS011;13414;44.534;18.700;2022-09-02T04:03:33;11.95;;;7.47;;
25511;SDS011;13414;44.534;18.700;2022-09-02T04:06:00;8.88;;;7.00;;
25511;SDS011;13414;44.534;18.700;2022-09-02T04:08:28;9.07;;;6.88;;
25511;SDS011;13414;44.534;18.700;2022-09-02T04:11:03;8.82;;;6.38;;
25511;SDS011;13414;44.534;18.700;2022-09-02T04:13:33;11.25;;;7.10;;
25511;SDS011;13414;44.534;18.700;2022-09-02T04:16:04;8.52;;;6.57;;
25511;SDS011;13414;44.534;18.700;2022-09-02T04:18:32;9.15;;;6.95;;
25511;SDS011;13414;44.534;18.700;2022-09-02T04:21:00;11.98;;;6.95;;
25511;SDS011;13414;44.534;18.700;2022-09-02T04:23:28;7.38;;;6.20;;
25511;SDS011;13414;44.534;18.700;2022-09-02T04:25:55;7.60;;;5.72;;
25511;SDS011;13414;44.534;18.700;2022-09-02T04:28:24;11.18;;;7.03;;
25511;SDS011;13414;44.534;18.700;2022-09-02T04:30:53;8.90;;;6.03;;
25511;SDS011;13414;44.534;18.700;2022-09-02T04:33:21;9.90;;;6.65;;
25511;SDS011;13414;44.534;18.700;2022-09-02T04:35:48;10.55;;;6.78;;
25511;SDS011;13414;44.534;18.700;2022-09-02T04:38:16;9.77;;;6.85;;
25511;SDS011;13414;44.534;18.700;2022-09-02T04:40:45;12.23;;;8.07;;
25511;SDS011;13414;44.534;18.700;2022-09-02T04:43:15;13.30;;;7.57;;
25511;SDS011;13414;44.534;18.700;2022-09-02T04:45:45;9.05;;;7.50;;
25511;SDS011;13414;44.534;18.700;2022-09-02T04:48:16;10.68;;;7.53;;
25511;SDS011;13414;44.534;18.700;2022-09-02T04:50:46;11.45;;;8.70;;
25511;SDS011;13414;44.534;18.700;2022-09-02T04:53:13;15.27;;;9.80;;
25511;SDS011;13414;44.534;18.700;2022-09-02T04:55:42;13.05;;;8.45;;
25511;SDS011;13414;44.534;18.700;2022-09-02T04:58:12;10.38;;;7.22;;
25511;SDS011;13414;44.534;18.700;2022-09-02T05:00:40;11.65;;;7.85;;
25511;SDS011;13414;44.534;18.700;2022-09-02T05:03:10;12.93;;;7.95;;
25511;SDS011;13414;44.534;18.700;2022-09-02T05:05:42;9.98;;;6.78;;
25511;SDS011;13414;44.534;18.700;2022-09-02T05:08:11;10.40;;;6.93;;
25511;SDS011;13414;44.534;18.700;2022-09-02T05:10:40;12.50;;;7.53;;
25511;SDS011;13414;44.534;18.700;2022-09-02T05:13:07;8.93;;;7.18;;
25511;SDS011;13414;44.534;18.700;2022-09-02T05:15:37;10.88;;;8.02;;
25511;SDS011;13414;44.534;18.700;2022-09-02T05:18:05;13.15;;;8.07;;
25511;SDS011;13414;44.534;18.700;2022-09-02T05:20:32;14.80;;;8.10;;
25511;SDS011;13414;44.534;18.700;2022-09-02T05:23:01;10.13;;;7.50;;
25511;SDS011;13414;44.534;18.700;2022-09-02T05:25:28;15.05;;;8.80;;
25511;SDS011;13414;44.534;18.700;2022-09-02T05:27:55;19.35;;;11.43;;
25511;SDS011;13414;44.534;18.700;2022-09-02T05:30:23;12.45;;;9.15;;
25511;SDS011;13414;44.534;18.700;2022-09-02T05:32:50;15.85;;;10.88;;
25511;SDS011;13414;44.534;18.700;2022-09-02T05:35:19;13.35;;;8.63;;
25511;SDS011;13414;44.534;18.700;2022-09-02T05:37:49;15.82;;;10.88;;
25511;SDS011;13414;44.534;18.700;2022-09-02T05:40:18;11.63;;;9.40;;
25511;SDS011;13414;44.534;18.700;2022-09-02T05:42:45;15.05;;;9.80;;
25511;SDS011;13414;44.534;18.700;2022-09-02T05:45:13;13.20;;;8.93;;
25511;SDS011;13414;44.534;18.700;2022-09-02T05:47:40;14.70;;;9.63;;
25511;SDS011;13414;44.534;18.700;2022-09-02T05:50:08;17.92;;;12.23;;
25511;SDS011;13414;44.534;18.700;2022-09-02T05:52:35;12.52;;;8.80;;
25511;SDS011;13414;44.534;18.700;2022-09-02T05:55:03;13.57;;;7.68;;
25511;SDS011;13414;44.534;18.700;2022-09-02T05:57:37;11.85;;;8.20;;
25511;SDS011;13414;44.534;18.700;2022-09-02T06:00:07;12.77;;;8.98;;
25511;SDS011;13414;44.534;18.700;2022-09-02T06:02:47;12.82;;;8.38;;
25511;SDS011;13414;44.534;18.700;2022-09-02T06:05:27;11.93;;;10.65;;
25511;SDS011;13414;44.534;18.700;2022-09-02T06:08:04;12.75;;;9.05;;
25511;SDS011;13414;44.534;18.700;2022-09-02T06:10:31;12.65;;;9.13;;
25511;SDS011;13414;44.534;18.700;2022-09-02T06:13:00;11.73;;;9.23;;
25511;SDS011;13414;44.534;18.700;2022-09-02T06:15:31;13.02;;;9.13;;
25511;SDS011;13414;44.534;18.700;2022-09-02T06:18:00;19.27;;;14.02;;
25511;SDS011;13414;44.534;18.700;2022-09-02T06:20:29;14.70;;;10.70;;
25511;SDS011;13414;44.534;18.700;2022-09-02T06:22:57;14.43;;;10.38;;
25511;SDS011;13414;44.534;18.700;2022-09-02T06:25:25;14.25;;;9.70;;
25511;SDS011;13414;44.534;18.700;2022-09-02T06:27:52;14.10;;;10.30;;
25511;SDS011;13414;44.534;18.700;2022-09-02T06:30:21;16.27;;;12.50;;
25511;SDS011;13414;44.534;18.700;2022-09-02T06:32:48;17.20;;;9.30;;
25511;SDS011;13414;44.534;18.700;2022-09-02T06:35:17;17.50;;;9.38;;
25511;SDS011;13414;44.534;18.700;2022-09-02T06:37:44;12.82;;;8.80;;
25511;SDS011;13414;44.534;18.700;2022-09-02T06:40:11;14.73;;;9.02;;
25511;SDS011;13414;44.534;18.700;2022-09-02T06:42:40;15.00;;;8.18;;
25511;SDS011;13414;44.534;18.700;2022-09-02T06:45:29;14.27;;;10.52;;
25511;SDS011;13414;44.534;18.700;2022-09-02T06:47:59;14.48;;;10.70;;
25511;SDS011;13414;44.534;18.700;2022-09-02T06:50:31;18.73;;;10.98;;
25511;SDS011;13414;44.534;18.700;2022-09-02T06:52:58;28.42;;;21.33;;
25511;SDS011;13414;44.534;18.700;2022-09-02T06:55:26;17.33;;;13.07;;
25511;SDS011;13414;44.534;18.700;2022-09-02T06:57:53;40.85;;;15.13;;
25511;SDS011;13414;44.534;18.700;2022-09-02T07:00:21;14.15;;;10.38;;
25511;SDS011;13414;44.534;18.700;2022-09-02T07:02:49;12.07;;;9.98;;
25511;SDS011;13414;44.534;18.700;2022-09-02T07:05:37;14.13;;;10.07;;
25511;SDS011;13414;44.534;18.700;2022-09-02T07:08:04;34.75;;;13.75;;
25511;SDS011;13414;44.534;18.700;2022-09-02T07:10:32;22.77;;;14.00;;
25511;SDS011;13414;44.534;18.700;2022-09-02T07:13:03;23.13;;;20.65;;
25511;SDS011;13414;44.534;18.700;2022-09-02T07:15:30;27.55;;;24.65;;
25511;SDS011;13414;44.534;18.700;2022-09-02T07:17:59;31.05;;;26.30;;
25511;SDS011;13414;44.534;18.700;2022-09-02T07:20:34;34.92;;;29.40;;
25511;SDS011;13414;44.534;18.700;2022-09-02T07:23:02;32.53;;;28.95;;
25511;SDS011;13414;44.534;18.700;2022-09-02T07:25:31;27.05;;;23.75;;
25511;SDS011;13414;44.534;18.700;2022-09-02T07:27:59;21.42;;;19.08;;
25511;SDS011;13414;44.534;18.700;2022-09-02T07:30:30;20.92;;;16.77;;
25511;SDS011;13414;44.534;18.700;2022-09-02T07:33:05;21.10;;;13.43;;
25511;SDS011;13414;44.534;18.700;2022-09-02T07:35:34;25.65;;;13.73;;
25511;SDS011;13414;44.534;18.700;2022-09-02T07:38:05;14.30;;;10.63;;
25511;SDS011;13414;44.534;18.700;2022-09-02T07:40:33;16.70;;;10.38;;
25511;SDS011;13414;44.534;18.700;2022-09-02T07:43:02;23.33;;;12.57;;
25511;SDS011;13414;44.534;18.700;2022-09-02T07:45:33;29.38;;;16.13;;
25511;SDS011;13414;44.534;18.700;2022-09-02T07:48:02;27.50;;;14.50;;
25511;SDS011;13414;44.534;18.700;2022-09-02T07:50:33;21.50;;;9.82;;
25511;SDS011;13414;44.534;18.700;2022-09-02T07:53:03;11.48;;;8.73;;
25511;SDS011;13414;44.534;18.700;2022-09-02T07:55:32;9.38;;;8.05;;
25511;SDS011;13414;44.534;18.700;2022-09-02T07:58:04;15.88;;;8.95;;
25511;SDS011;13414;44.534;18.700;2022-09-02T08:00:31;13.55;;;8.23;;
25511;SDS011;13414;44.534;18.700;2022-09-02T08:03:05;15.95;;;9.77;;
25511;SDS011;13414;44.534;18.700;2022-09-02T08:05:38;10.70;;;7.82;;
25511;SDS011;13414;44.534;18.700;2022-09-02T08:08:06;13.48;;;8.88;;
25511;SDS011;13414;44.534;18.700;2022-09-02T08:10:34;10.52;;;6.57;;
25511;SDS011;13414;44.534;18.700;2022-09-02T08:13:02;8.10;;;3.80;;
25511;SDS011;13414;44.534;18.700;2022-09-02T08:15:31;7.78;;;3.92;;
25511;SDS011;13414;44.534;18.700;2022-09-02T08:18:00;5.13;;;3.78;;
25511;SDS011;13414;44.534;18.700;2022-09-02T08:20:28;7.40;;;4.82;;
25511;SDS011;13414;44.534;18.700;2022-09-02T08:22:57;7.28;;;4.72;;
25511;SDS011;13414;44.534;18.700;2022-09-02T08:25:24;8.57;;;5.47;;
25511;SDS011;13414;44.534;18.700;2022-09-02T08:27:52;7.10;;;4.68;;
25511;SDS011;13414;44.534;18.700;2022-09-02T08:30:20;5.28;;;4.15;;
25511;SDS011;13414;44.534;18.700;2022-09-02T08:32:47;7.63;;;3.28;;
25511;SDS011;13414;44.534;18.700;2022-09-02T08:35:14;5.88;;;3.22;;
25511;SDS011;13414;44.534;18.700;2022-09-02T08:37:42;10.15;;;4.43;;
25511;SDS011;13414;44.534;18.700;2022-09-02T08:40:12;6.38;;;4.00;;
25511;SDS011;13414;44.534;18.700;2022-09-02T08:42:42;6.90;;;4.47;;
25511;SDS011;13414;44.534;18.700;2022-09-02T08:45:13;5.57;;;3.95;;
25511;SDS011;13414;44.534;18.700;2022-09-02T08:47:46;10.63;;;4.82;;
25511;SDS011;13414;44.534;18.700;2022-09-02T08:50:19;7.30;;;4.70;;
25511;SDS011;13414;44.534;18.700;2022-09-02T08:52:51;10.40;;;5.10;;
25511;SDS011;13414;44.534;18.700;2022-09-02T08:55:27;7.30;;;4.55;;
25511;SDS011;13414;44.534;18.700;2022-09-02T08:58:00;9.05;;;5.35;;
25511;SDS011;13414;44.534;18.700;2022-09-02T09:00:28;16.10;;;11.93;;
25511;SDS011;13414;44.534;18.700;2022-09-02T09:03:01;15.57;;;11.20;;
25511;SDS011;13414;44.534;18.700;2022-09-02T09:05:41;14.85;;;5.78;;
25511;SDS011;13414;44.534;18.700;2022-09-02T09:08:14;12.80;;;8.45;;
25511;SDS011;13414;44.534;18.700;2022-09-02T09:10:53;8.88;;;6.28;;
25511;SDS011;13414;44.534;18.700;2022-09-02T09:13:38;8.48;;;5.47;;
25511;SDS011;13414;44.534;18.700;2022-09-02T09:16:27;17.70;;;8.35;;
25511;SDS011;13414;44.534;18.700;2022-09-02T09:19:05;11.38;;;7.10;;
25511;SDS011;13414;44.534;18.700;2022-09-02T09:21:37;10.75;;;7.22;;
25511;SDS011;13414;44.534;18.700;2022-09-02T09:24:07;15.88;;;9.82;;
25511;SDS011;13414;44.534;18.700;2022-09-02T09:26:44;12.38;;;8.80;;
25511;SDS011;13414;44.534;18.700;2022-09-02T09:29:12;15.77;;;10.68;;
25511;SDS011;13414;44.534;18.700;2022-09-02T09:31:40;12.27;;;9.05;;
25511;SDS011;13414;44.534;18.700;2022-09-02T09:34:10;16.05;;;12.27;;
25511;SDS011;13414;44.534;18.700;2022-09-02T09:36:42;18.35;;;11.38;;
25511;SDS011;13414;44.534;18.700;2022-09-02T09:39:15;12.20;;;7.32;;
25511;SDS011;13414;44.534;18.700;2022-09-02T09:41:46;8.57;;;5.60;;
25511;SDS011;13414;44.534;18.700;2022-09-02T09:44:27;8.77;;;5.63;;
25511;SDS011;13414;44.534;18.700;2022-09-02T09:47:05;10.93;;;7.10;;
25511;SDS011;13414;44.534;18.700;2022-09-02T09:49:34;12.07;;;9.48;;
25511;SDS011;13414;44.534;18.700;2022-09-02T09:52:02;10.80;;;4.95;;
25511;SDS011;13414;44.534;18.700;2022-09-02T09:54:30;10.73;;;6.40;;
25511;SDS011;13414;44.534;18.700;2022-09-02T09:57:13;13.20;;;8.73;;
25511;SDS011;13414;44.534;18.700;2022-09-02T09:59:45;9.90;;;6.50;;
25511;SDS011;13414;44.534;18.700;2022-09-02T10:02:18;7.43;;;5.25;;
25511;SDS011;13414;44.534;18.700;2022-09-02T10:04:46;6.78;;;5.20;;
25511;SDS011;13414;44.534;18.700;2022-09-02T10:07:14;11.07;;;5.18;;
25511;SDS011;13414;44.534;18.700;2022-09-02T10:12:36;7.72;;;5.10;;
25511;SDS011;13414;44.534;18.700;2022-09-02T10:15:03;5.85;;;4.70;;
25511;SDS011;13414;44.534;18.700;2022-09-02T10:17:34;9.73;;;5.20;;
25511;SDS011;13414;44.534;18.700;2022-09-02T10:20:08;8.20;;;5.28;;
25511;SDS011;13414;44.534;18.700;2022-09-02T10:25:45;7.32;;;4.82;;
25511;SDS011;13414;44.534;18.700;2022-09-02T10:28:28;9.93;;;5.95;;
25511;SDS011;13414;44.534;18.700;2022-09-02T10:31:09;9.23;;;6.13;;
25511;SDS011;13414;44.534;18.700;2022-09-02T10:33:48;9.45;;;5.40;;
25511;SDS011;13414;44.534;18.700;2022-09-02T10:36:30;7.97;;;4.35;;
25511;SDS011;13414;44.534;18.700;2022-09-02T10:39:02;9.52;;;5.00;;
25511;SDS011;13414;44.534;18.700;2022-09-02T10:41:39;11.18;;;6.00;;
25511;SDS011;13414;44.534;18.700;2022-09-02T10:44:17;7.93;;;5.35;;
25511;SDS011;13414;44.534;18.700;2022-09-02T10:46:53;12.05;;;7.70;;
25511;SDS011;13414;44.534;18.700;2022-09-02T10:52:27;9.60;;;5.82;;
25511;SDS011;13414;44.534;18.700;2022-09-02T10:55:05;6.53;;;4.00;;
25511;SDS011;13414;44.534;18.700;2022-09-02T10:57:41;6.10;;;4.47;;
25511;SDS011;13414;44.534;18.700;2022-09-02T11:00:16;7.67;;;4.93;;
25511;SDS011;13414;44.534;18.700;2022-09-02T11:02:46;6.13;;;3.58;;
25511;SDS011;13414;44.534;18.700;2022-09-02T11:05:17;7.75;;;3.80;;
25511;SDS011;13414;44.534;18.700;2022-09-02T11:07:50;8.40;;;5.20;;
25511;SDS011;13414;44.534;18.700;2022-09-02T11:10:22;6.15;;;4.10;;
25511;SDS011;13414;44.534;18.700;2022-09-02T11:12:54;8.02;;;5.63;;
25511;SDS011;13414;44.534;18.700;2022-09-02T11:15:30;8.45;;;5.05;;
25511;SDS011;13414;44.534;18.700;2022-09-02T11:18:10;4.85;;;3.58;;
25511;SDS011;13414;44.534;18.700;2022-09-02T11:20:44;4.97;;;3.70;;
25511;SDS011;13414;44.534;18.700;2022-09-02T11:23:21;6.90;;;4.15;;
25511;SDS011;13414;44.534;18.700;2022-09-02T11:25:56;7.43;;;3.92;;
25511;SDS011;13414;44.534;18.700;2022-09-02T11:28:29;8.05;;;4.03;;
25511;SDS011;13414;44.534;18.700;2022-09-02T11:31:04;4.82;;;3.38;;
25511;SDS011;13414;44.534;18.700;2022-09-02T11:33:42;4.53;;;3.22;;
25511;SDS011;13414;44.534;18.700;2022-09-02T11:36:16;6.05;;;3.10;;
25511;SDS011;13414;44.534;18.700;2022-09-02T11:38:46;9.70;;;7.00;;
25511;SDS011;13414;44.534;18.700;2022-09-02T11:41:24;8.30;;;3.90;;
25511;SDS011;13414;44.534;18.700;2022-09-02T11:43:54;5.13;;;3.10;;
25511;SDS011;13414;44.534;18.700;2022-09-02T11:46:33;5.75;;;3.10;;
25511;SDS011;13414;44.534;18.700;2022-09-02T11:52:07;10.18;;;6.40;;
25511;SDS011;13414;44.534;18.700;2022-09-02T11:54:47;9.63;;;3.95;;
25511;SDS011;13414;44.534;18.700;2022-09-02T11:57:20;8.57;;;5.10;;
25511;SDS011;13414;44.534;18.700;2022-09-02T12:00:05;9.68;;;5.90;;
25511;SDS011;13414;44.534;18.700;2022-09-02T12:02:42;6.57;;;4.18;;
25511;SDS011;13414;44.534;18.700;2022-09-02T12:08:11;9.00;;;5.93;;
25511;SDS011;13414;44.534;18.700;2022-09-02T12:11:00;7.90;;;4.68;;
25511;SDS011;13414;44.534;18.700;2022-09-02T12:13:33;8.02;;;3.55;;
25511;SDS011;13414;44.534;18.700;2022-09-02T12:25:03;9.43;;;4.68;;
25511;SDS011;13414;44.534;18.700;2022-09-02T12:27:45;6.10;;;3.95;;
25511;SDS011;13414;44.534;18.700;2022-09-02T12:30:14;7.38;;;4.60;;
25511;SDS011;13414;44.534;18.700;2022-09-02T12:33:16;5.68;;;4.20;;
25511;SDS011;13414;44.534;18.700;2022-09-02T12:35:57;9.00;;;5.32;;
25511;SDS011;13414;44.534;18.700;2022-09-02T12:38:26;9.50;;;5.03;;
25511;SDS011;13414;44.534;18.700;2022-09-02T12:41:16;10.57;;;5.30;;
25511;SDS011;13414;44.534;18.700;2022-09-02T12:43:51;8.90;;;5.22;;
25511;SDS011;13414;44.534;18.700;2022-09-02T12:49:20;10.27;;;4.80;;
25511;SDS011;13414;44.534;18.700;2022-09-02T12:52:00;14.67;;;5.43;;
25511;SDS011;13414;44.534;18.700;2022-09-02T12:54:33;15.80;;;6.03;;
25511;SDS011;13414;44.534;18.700;2022-09-02T12:57:07;12.48;;;5.78;;
25511;SDS011;13414;44.534;18.700;2022-09-02T12:59:36;9.70;;;6.47;;
25511;SDS011;13414;44.534;18.700;2022-09-02T13:02:09;13.52;;;8.95;;
25511;SDS011;13414;44.534;18.700;2022-09-02T13:04:50;22.50;;;15.07;;
25511;SDS011;13414;44.534;18.700;2022-09-02T13:07:37;22.85;;;14.52;;
25511;SDS011;13414;44.534;18.700;2022-09-02T13:10:26;29.63;;;19.23;;
25511;SDS011;13414;44.534;18.700;2022-09-02T13:13:14;39.08;;;25.83;;
25511;SDS011;13414;44.534;18.700;2022-09-02T13:16:09;43.10;;;26.25;;
25511;SDS011;13414;44.534;18.700;2022-09-02T13:18:49;41.70;;;26.95;;
25511;SDS011;13414;44.534;18.700;2022-09-02T13:30:56;44.15;;;27.02;;
25511;SDS011;13414;44.534;18.700;2022-09-02T13:33:33;43.63;;;26.48;;
25511;SDS011;13414;44.534;18.700;2022-09-02T13:36:01;45.33;;;26.63;;
25511;SDS011;13414;44.534;18.700;2022-09-02T13:38:30;42.72;;;25.77;;
25511;SDS011;13414;44.534;18.700;2022-09-02T13:40:57;40.78;;;25.75;;
25511;SDS011;13414;44.534;18.700;2022-09-02T13:43:26;43.45;;;27.13;;
25511;SDS011;13414;44.534;18.700;2022-09-02T13:45:53;38.15;;;23.95;;
25511;SDS011;13414;44.534;18.700;2022-09-02T13:48:26;38.78;;;23.67;;
25511;SDS011;13414;44.534;18.700;2022-09-02T13:50:57;35.17;;;22.13;;
25511;SDS011;13414;44.534;18.700;2022-09-02T13:53:27;29.20;;;18.10;;
25511;SDS011;13414;44.534;18.700;2022-09-02T13:55:58;29.42;;;17.60;;
25511;SDS011;13414;44.534;18.700;2022-09-02T13:58:35;22.05;;;14.68;;
25511;SDS011;13414;44.534;18.700;2022-09-02T14:01:22;20.98;;;12.73;;
25511;SDS011;13414;44.534;18.700;2022-09-02T14:03:52;18.73;;;10.32;;
25511;SDS011;13414;44.534;18.700;2022-09-02T14:06:22;24.02;;;12.38;;
25511;SDS011;13414;44.534;18.700;2022-09-02T14:08:53;17.25;;;10.95;;
25511;SDS011;13414;44.534;18.700;2022-09-02T14:11:24;24.95;;;10.80;;
25511;SDS011;13414;44.534;18.700;2022-09-02T14:13:54;19.10;;;10.90;;
25511;SDS011;13414;44.534;18.700;2022-09-02T14:16:23;16.35;;;10.95;;
25511;SDS011;13414;44.534;18.700;2022-09-02T14:19:04;17.20;;;11.80;;
25511;SDS011;13414;44.534;18.700;2022-09-02T14:21:35;17.90;;;10.82;;
25511;SDS011;13414;44.534;18.700;2022-09-02T14:24:03;19.13;;;12.20;;
25511;SDS011;13414;44.534;18.700;2022-09-02T14:26:31;14.00;;;9.75;;
25511;SDS011;13414;44.534;18.700;2022-09-02T14:29:03;15.65;;;10.48;;
25511;SDS011;13414;44.534;18.700;2022-09-02T14:31:32;15.45;;;10.38;;
25511;SDS011;13414;44.534;18.700;2022-09-02T14:34:02;12.73;;;8.32;;
25511;SDS011;13414;44.534;18.700;2022-09-02T14:36:31;13.65;;;8.45;;
25511;SDS011;13414;44.534;18.700;2022-09-02T14:39:10;11.65;;;7.70;;
25511;SDS011;13414;44.534;18.700;2022-09-02T14:41:43;10.63;;;7.80;;
25511;SDS011;13414;44.534;18.700;2022-09-02T14:44:16;15.63;;;10.10;;
25511;SDS011;13414;44.534;18.700;2022-09-02T14:46:48;13.50;;;8.52;;
25511;SDS011;13414;44.534;18.700;2022-09-02T14:49:18;13.48;;;8.32;;
25511;SDS011;13414;44.534;18.700;2022-09-02T14:51:48;15.95;;;9.88;;
25511;SDS011;13414;44.534;18.700;2022-09-02T14:54:33;14.90;;;10.00;;
25511;SDS011;13414;44.534;18.700;2022-09-02T14:57:04;9.75;;;7.45;;
25511;SDS011;13414;44.534;18.700;2022-09-02T14:59:33;10.10;;;7.05;;
25511;SDS011;13414;44.534;18.700;2022-09-02T15:02:00;12.77;;;7.35;;
25511;SDS011;13414;44.534;18.700;2022-09-02T15:04:28;11.88;;;7.13;;
25511;SDS011;13414;44.534;18.700;2022-09-02T15:07:00;10.85;;;7.30;;
25511;SDS011;13414;44.534;18.700;2022-09-02T15:09:28;10.75;;;7.40;;
25511;SDS011;13414;44.534;18.700;2022-09-02T15:11:55;12.68;;;7.63;;
25511;SDS011;13414;44.534;18.700;2022-09-02T15:14:22;11.45;;;6.95;;
25511;SDS011;13414;44.534;18.700;2022-09-02T15:16:51;12.60;;;7.57;;
25511;SDS011;13414;44.534;18.700;2022-09-02T15:19:19;12.38;;;6.63;;
25511;SDS011;13414;44.534;18.700;2022-09-02T15:21:46;9.48;;;6.03;;
25511;SDS011;13414;44.534;18.700;2022-09-02T15:24:13;9.80;;;5.90;;